sensor_id;sensor_type;location;lat;lon;timestamp;temperature;humidity
66019;HTU21D;52787;51.084;5.816;2024-01-06T00:02:00;8.91;89.16
66019;HTU21D;52787;51.084;5.816;2024-01-06T00:04:27;8.90;89.28
66019;HTU21D;52787;51.084;5.816;2024-01-06T00:06:52;8.89;89.30
66019;HTU21D;52787;51.084;5.816;2024-01-06T00:09:19;8.89;89.45
66019;HTU21D;52787;51.084;5.816;2024-01-06T00:11:44;8.89;89.57
66019;HTU21D;52787;51.084;5.816;2024-01-06T00:14:10;8.91;89.61
66019;HTU21D;52787;51.084;5.816;2024-01-06T00:16:36;8.92;89.60
66019;HTU21D;52787;51.084;5.816;2024-01-06T00:19:01;8.93;89.71
66019;HTU21D;52787;51.084;5.816;2024-01-06T00:21:27;8.93;89.68
66019;HTU21D;52787;51.084;5.816;2024-01-06T00:23:53;8.85;90.03
66019;HTU21D;52787;51.084;5.816;2024-01-06T00:26:21;8.87;90.12
66019;HTU21D;52787;51.084;5.816;2024-01-06T00:28:47;8.91;90.02
66019;HTU21D;52787;51.084;5.816;2024-01-06T00:31:16;8.91;90.17
66019;HTU21D;52787;51.084;5.816;2024-01-06T00:33:45;8.92;90.02
66019;HTU21D;52787;51.084;5.816;2024-01-06T00:36:11;8.95;90.00
66019;HTU21D;52787;51.084;5.816;2024-01-06T00:38:36;9.00;89.91
66019;HTU21D;52787;51.084;5.816;2024-01-06T00:41:02;9.00;89.79
66019;HTU21D;52787;51.084;5.816;2024-01-06T00:43:28;9.01;89.67
66019;HTU21D;52787;51.084;5.816;2024-01-06T00:45:54;9.00;89.60
66019;HTU21D;52787;51.084;5.816;2024-01-06T00:48:20;8.98;89.64
66019;HTU21D;52787;51.084;5.816;2024-01-06T00:50:45;8.97;89.73
66019;HTU21D;52787;51.084;5.816;2024-01-06T00:53:12;9.01;89.54
66019;HTU21D;52787;51.084;5.816;2024-01-06T00:55:38;9.04;89.34
66019;HTU21D;52787;51.084;5.816;2024-01-06T00:58:04;9.03;89.22
66019;HTU21D;52787;51.084;5.816;2024-01-06T01:00:29;9.06;89.15
66019;HTU21D;52787;51.084;5.816;2024-01-06T01:02:55;9.06;88.99
66019;HTU21D;52787;51.084;5.816;2024-01-06T01:05:21;9.02;89.07
66019;HTU21D;52787;51.084;5.816;2024-01-06T01:07:47;9.03;89.01
66019;HTU21D;52787;51.084;5.816;2024-01-06T01:10:13;9.00;89.06
66019;HTU21D;52787;51.084;5.816;2024-01-06T01:12:38;8.98;88.95
66019;HTU21D;52787;51.084;5.816;2024-01-06T01:15:05;9.02;88.89
66019;HTU21D;52787;51.084;5.816;2024-01-06T01:17:31;9.03;88.99
66019;HTU21D;52787;51.084;5.816;2024-01-06T01:19:56;9.03;88.92
66019;HTU21D;52787;51.084;5.816;2024-01-06T01:22:22;9.05;88.89
66019;HTU21D;52787;51.084;5.816;2024-01-06T01:24:48;9.07;88.73
66019;HTU21D;52787;51.084;5.816;2024-01-06T01:27:14;9.07;88.72
66019;HTU21D;52787;51.084;5.816;2024-01-06T01:29:39;9.10;88.51
66019;HTU21D;52787;51.084;5.816;2024-01-06T01:32:05;9.12;88.33
66019;HTU21D;52787;51.084;5.816;2024-01-06T01:34:31;9.12;88.32
66019;HTU21D;52787;51.084;5.816;2024-01-06T01:36:57;9.15;88.22
66019;HTU21D;52787;51.084;5.816;2024-01-06T01:39:23;9.19;88.09
66019;HTU21D;52787;51.084;5.816;2024-01-06T01:41:48;9.19;88.14
66019;HTU21D;52787;51.084;5.816;2024-01-06T01:44:15;9.22;87.99
66019;HTU21D;52787;51.084;5.816;2024-01-06T01:46:41;9.21;87.83
66019;HTU21D;52787;51.084;5.816;2024-01-06T01:49:07;9.23;87.70
66019;HTU21D;52787;51.084;5.816;2024-01-06T01:51:35;9.22;87.52
66019;HTU21D;52787;51.084;5.816;2024-01-06T01:54:02;9.22;87.54
66019;HTU21D;52787;51.084;5.816;2024-01-06T01:56:31;9.17;87.75
66019;HTU21D;52787;51.084;5.816;2024-01-06T01:59:04;9.12;87.70
66019;HTU21D;52787;51.084;5.816;2024-01-06T02:01:33;9.05;87.96
66019;HTU21D;52787;51.084;5.816;2024-01-06T02:03:59;9.03;88.18
66019;HTU21D;52787;51.084;5.816;2024-01-06T02:06:25;9.01;88.02
66019;HTU21D;52787;51.084;5.816;2024-01-06T02:08:51;9.00;88.25
66019;HTU21D;52787;51.084;5.816;2024-01-06T02:11:16;9.00;88.29
66019;HTU21D;52787;51.084;5.816;2024-01-06T02:13:42;9.02;88.22
66019;HTU21D;52787;51.084;5.816;2024-01-06T02:16:08;9.04;88.08
66019;HTU21D;52787;51.084;5.816;2024-01-06T02:18:34;9.06;87.93
66019;HTU21D;52787;51.084;5.816;2024-01-06T02:21:01;9.05;87.79
66019;HTU21D;52787;51.084;5.816;2024-01-06T02:23:28;9.04;87.92
66019;HTU21D;52787;51.084;5.816;2024-01-06T02:25:55;9.05;87.79
66019;HTU21D;52787;51.084;5.816;2024-01-06T02:28:22;8.95;87.83
66019;HTU21D;52787;51.084;5.816;2024-01-06T02:30:48;8.90;87.96
66019;HTU21D;52787;51.084;5.816;2024-01-06T02:33:14;8.89;88.00
66019;HTU21D;52787;51.084;5.816;2024-01-06T02:35:40;8.83;87.25
66019;HTU21D;52787;51.084;5.816;2024-01-06T02:38:06;8.75;87.32
66019;HTU21D;52787;51.084;5.816;2024-01-06T02:40:33;8.66;87.56
66019;HTU21D;52787;51.084;5.816;2024-01-06T02:42:59;8.62;87.55
66019;HTU21D;52787;51.084;5.816;2024-01-06T02:45:25;8.63;87.68
66019;HTU21D;52787;51.084;5.816;2024-01-06T02:47:51;8.62;87.80
66019;HTU21D;52787;51.084;5.816;2024-01-06T02:50:17;8.61;87.74
66019;HTU21D;52787;51.084;5.816;2024-01-06T02:52:46;8.59;87.61
66019;HTU21D;52787;51.084;5.816;2024-01-06T02:55:12;8.57;87.77
66019;HTU21D;52787;51.084;5.816;2024-01-06T02:57:38;8.51;87.85
66019;HTU21D;52787;51.084;5.816;2024-01-06T03:00:04;8.48;87.83
66019;HTU21D;52787;51.084;5.816;2024-01-06T03:02:31;8.49;87.54
66019;HTU21D;52787;51.084;5.816;2024-01-06T03:04:58;8.44;87.43
66019;HTU21D;52787;51.084;5.816;2024-01-06T03:07:24;8.41;87.62
66019;HTU21D;52787;51.084;5.816;2024-01-06T03:09:49;8.35;87.25
66019;HTU21D;52787;51.084;5.816;2024-01-06T03:12:15;8.37;87.49
66019;HTU21D;52787;51.084;5.816;2024-01-06T03:14:41;8.38;87.33
66019;HTU21D;52787;51.084;5.816;2024-01-06T03:17:07;8.30;86.14
66019;HTU21D;52787;51.084;5.816;2024-01-06T03:19:36;8.28;86.67
66019;HTU21D;52787;51.084;5.816;2024-01-06T03:22:02;8.23;86.51
66019;HTU21D;52787;51.084;5.816;2024-01-06T03:24:28;8.26;86.53
66019;HTU21D;52787;51.084;5.816;2024-01-06T03:26:54;8.31;86.68
66019;HTU21D;52787;51.084;5.816;2024-01-06T03:29:19;8.30;86.36
66019;HTU21D;52787;51.084;5.816;2024-01-06T03:31:45;8.27;86.20
66019;HTU21D;52787;51.084;5.816;2024-01-06T03:34:12;8.27;86.29
66019;HTU21D;52787;51.084;5.816;2024-01-06T03:36:39;8.31;86.02
66019;HTU21D;52787;51.084;5.816;2024-01-06T03:39:05;8.31;85.57
66019;HTU21D;52787;51.084;5.816;2024-01-06T03:41:31;8.28;85.61
66019;HTU21D;52787;51.084;5.816;2024-01-06T03:43:58;8.24;85.61
66019;HTU21D;52787;51.084;5.816;2024-01-06T03:46:24;8.27;85.74
66019;HTU21D;52787;51.084;5.816;2024-01-06T03:48:49;8.26;85.71
66019;HTU21D;52787;51.084;5.816;2024-01-06T03:51:15;8.23;85.71
66019;HTU21D;52787;51.084;5.816;2024-01-06T03:53:41;8.17;85.40
66019;HTU21D;52787;51.084;5.816;2024-01-06T03:56:07;8.09;85.48
66019;HTU21D;52787;51.084;5.816;2024-01-06T03:58:34;8.04;85.63
66019;HTU21D;52787;51.084;5.816;2024-01-06T04:01:00;7.94;86.05
66019;HTU21D;52787;51.084;5.816;2024-01-06T04:03:26;7.96;86.38
66019;HTU21D;52787;51.084;5.816;2024-01-06T04:05:52;7.96;86.48
66019;HTU21D;52787;51.084;5.816;2024-01-06T04:08:18;8.00;86.29
66019;HTU21D;52787;51.084;5.816;2024-01-06T04:10:44;7.99;85.96
66019;HTU21D;52787;51.084;5.816;2024-01-06T04:13:11;7.99;85.74
66019;HTU21D;52787;51.084;5.816;2024-01-06T04:15:37;7.99;85.79
66019;HTU21D;52787;51.084;5.816;2024-01-06T04:18:04;8.01;85.77
66019;HTU21D;52787;51.084;5.816;2024-01-06T04:20:31;8.03;85.43
66019;HTU21D;52787;51.084;5.816;2024-01-06T04:22:57;7.99;85.25
66019;HTU21D;52787;51.084;5.816;2024-01-06T04:25:24;7.92;85.28
66019;HTU21D;52787;51.084;5.816;2024-01-06T04:27:50;7.92;85.29
66019;HTU21D;52787;51.084;5.816;2024-01-06T04:30:17;7.94;85.43
66019;HTU21D;52787;51.084;5.816;2024-01-06T04:32:43;8.01;85.39
66019;HTU21D;52787;51.084;5.816;2024-01-06T04:35:09;8.03;84.81
66019;HTU21D;52787;51.084;5.816;2024-01-06T04:37:35;8.01;84.61
66019;HTU21D;52787;51.084;5.816;2024-01-06T04:40:02;8.03;84.59
66019;HTU21D;52787;51.084;5.816;2024-01-06T04:42:29;8.00;84.50
66019;HTU21D;52787;51.084;5.816;2024-01-06T04:44:55;7.98;84.19
66019;HTU21D;52787;51.084;5.816;2024-01-06T04:47:20;7.92;83.87
66019;HTU21D;52787;51.084;5.816;2024-01-06T04:49:46;7.88;84.39
66019;HTU21D;52787;51.084;5.816;2024-01-06T04:52:12;7.83;84.13
66019;HTU21D;52787;51.084;5.816;2024-01-06T04:54:38;7.75;84.70
66019;HTU21D;52787;51.084;5.816;2024-01-06T04:57:04;7.74;85.05
66019;HTU21D;52787;51.084;5.816;2024-01-06T04:59:30;7.67;85.29
66019;HTU21D;52787;51.084;5.816;2024-01-06T05:01:57;7.63;85.42
66019;HTU21D;52787;51.084;5.816;2024-01-06T05:04:24;7.61;85.82
66019;HTU21D;52787;51.084;5.816;2024-01-06T05:06:51;7.63;86.00
66019;HTU21D;52787;51.084;5.816;2024-01-06T05:09:17;7.62;86.05
66019;HTU21D;52787;51.084;5.816;2024-01-06T05:11:44;7.63;85.89
66019;HTU21D;52787;51.084;5.816;2024-01-06T05:14:10;7.65;85.07
66019;HTU21D;52787;51.084;5.816;2024-01-06T05:16:36;7.61;84.29
66019;HTU21D;52787;51.084;5.816;2024-01-06T05:19:02;7.53;84.51
66019;HTU21D;52787;51.084;5.816;2024-01-06T05:21:29;7.54;85.13
66019;HTU21D;52787;51.084;5.816;2024-01-06T05:23:55;7.60;85.05
66019;HTU21D;52787;51.084;5.816;2024-01-06T05:26:21;7.63;84.89
66019;HTU21D;52787;51.084;5.816;2024-01-06T05:28:46;7.64;84.81
66019;HTU21D;52787;51.084;5.816;2024-01-06T05:31:12;7.59;84.37
66019;HTU21D;52787;51.084;5.816;2024-01-06T05:33:38;7.53;84.65
66019;HTU21D;52787;51.084;5.816;2024-01-06T05:36:04;7.54;84.79
66019;HTU21D;52787;51.084;5.816;2024-01-06T05:38:30;7.57;84.90
66019;HTU21D;52787;51.084;5.816;2024-01-06T05:40:56;7.55;84.29
66019;HTU21D;52787;51.084;5.816;2024-01-06T05:43:23;7.45;83.81
66019;HTU21D;52787;51.084;5.816;2024-01-06T05:45:48;7.35;84.04
66019;HTU21D;52787;51.084;5.816;2024-01-06T05:48:14;7.22;84.39
66019;HTU21D;52787;51.084;5.816;2024-01-06T05:50:40;7.14;84.62
66019;HTU21D;52787;51.084;5.816;2024-01-06T05:53:07;7.01;84.66
66019;HTU21D;52787;51.084;5.816;2024-01-06T05:55:33;6.98;84.84
66019;HTU21D;52787;51.084;5.816;2024-01-06T05:57:59;6.93;84.37
66019;HTU21D;52787;51.084;5.816;2024-01-06T06:00:26;6.87;84.58
66019;HTU21D;52787;51.084;5.816;2024-01-06T06:02:52;6.93;84.87
66019;HTU21D;52787;51.084;5.816;2024-01-06T06:05:18;6.93;84.83
66019;HTU21D;52787;51.084;5.816;2024-01-06T06:07:43;6.99;84.68
66019;HTU21D;52787;51.084;5.816;2024-01-06T06:10:11;6.98;84.22
66019;HTU21D;52787;51.084;5.816;2024-01-06T06:12:38;6.88;83.43
66019;HTU21D;52787;51.084;5.816;2024-01-06T06:15:05;6.82;83.47
66019;HTU21D;52787;51.084;5.816;2024-01-06T06:17:32;6.79;84.23
66019;HTU21D;52787;51.084;5.816;2024-01-06T06:19:58;6.88;84.45
66019;HTU21D;52787;51.084;5.816;2024-01-06T06:22:27;6.88;83.94
66019;HTU21D;52787;51.084;5.816;2024-01-06T06:24:59;6.82;83.65
66019;HTU21D;52787;51.084;5.816;2024-01-06T06:27:26;6.78;84.19
66019;HTU21D;52787;51.084;5.816;2024-01-06T06:29:53;6.81;84.42
66019;HTU21D;52787;51.084;5.816;2024-01-06T06:32:19;6.81;84.18
66019;HTU21D;52787;51.084;5.816;2024-01-06T06:34:45;6.80;84.22
66019;HTU21D;52787;51.084;5.816;2024-01-06T06:37:10;6.70;84.27
66019;HTU21D;52787;51.084;5.816;2024-01-06T06:39:36;6.56;84.37
66019;HTU21D;52787;51.084;5.816;2024-01-06T06:42:03;6.55;84.70
66019;HTU21D;52787;51.084;5.816;2024-01-06T06:44:29;6.58;84.75
66019;HTU21D;52787;51.084;5.816;2024-01-06T06:46:55;6.61;84.66
66019;HTU21D;52787;51.084;5.816;2024-01-06T06:49:22;6.69;84.56
66019;HTU21D;52787;51.084;5.816;2024-01-06T06:51:47;6.65;83.63
66019;HTU21D;52787;51.084;5.816;2024-01-06T06:54:14;6.70;84.16
66019;HTU21D;52787;51.084;5.816;2024-01-06T06:56:42;6.71;83.29
66019;HTU21D;52787;51.084;5.816;2024-01-06T06:59:08;6.76;83.70
66019;HTU21D;52787;51.084;5.816;2024-01-06T07:01:33;6.78;83.18
66019;HTU21D;52787;51.084;5.816;2024-01-06T07:04:03;6.73;82.79
66019;HTU21D;52787;51.084;5.816;2024-01-06T07:06:29;6.78;83.04
66019;HTU21D;52787;51.084;5.816;2024-01-06T07:08:56;6.74;81.94
66019;HTU21D;52787;51.084;5.816;2024-01-06T07:11:22;6.73;82.09
66019;HTU21D;52787;51.084;5.816;2024-01-06T07:13:49;6.79;82.33
66019;HTU21D;52787;51.084;5.816;2024-01-06T07:16:15;6.80;82.10
66019;HTU21D;52787;51.084;5.816;2024-01-06T07:18:41;6.81;81.83
66019;HTU21D;52787;51.084;5.816;2024-01-06T07:21:08;6.80;81.60
66019;HTU21D;52787;51.084;5.816;2024-01-06T07:23:34;6.79;81.68
66019;HTU21D;52787;51.084;5.816;2024-01-06T07:26:01;6.82;81.91
66019;HTU21D;52787;51.084;5.816;2024-01-06T07:28:26;6.90;81.50
66019;HTU21D;52787;51.084;5.816;2024-01-06T07:30:53;6.93;81.36
66019;HTU21D;52787;51.084;5.816;2024-01-06T07:33:19;6.94;81.46
66019;HTU21D;52787;51.084;5.816;2024-01-06T07:35:44;6.91;80.92
66019;HTU21D;52787;51.084;5.816;2024-01-06T07:38:11;6.89;81.45
66019;HTU21D;52787;51.084;5.816;2024-01-06T07:40:37;6.87;81.47
66019;HTU21D;52787;51.084;5.816;2024-01-06T07:43:03;6.84;81.49
66019;HTU21D;52787;51.084;5.816;2024-01-06T07:45:30;6.80;81.56
66019;HTU21D;52787;51.084;5.816;2024-01-06T07:47:57;6.81;81.98
66019;HTU21D;52787;51.084;5.816;2024-01-06T07:50:27;6.88;82.02
66019;HTU21D;52787;51.084;5.816;2024-01-06T07:52:53;6.88;81.77
66019;HTU21D;52787;51.084;5.816;2024-01-06T07:55:19;6.82;81.57
66019;HTU21D;52787;51.084;5.816;2024-01-06T07:57:45;6.84;82.00
66019;HTU21D;52787;51.084;5.816;2024-01-06T08:00:12;6.83;81.97
66019;HTU21D;52787;51.084;5.816;2024-01-06T08:02:40;6.83;81.47
66019;HTU21D;52787;51.084;5.816;2024-01-06T08:05:07;6.85;81.88
66019;HTU21D;52787;51.084;5.816;2024-01-06T08:07:33;6.93;81.59
66019;HTU21D;52787;51.084;5.816;2024-01-06T08:09:59;6.97;81.22
66019;HTU21D;52787;51.084;5.816;2024-01-06T08:12:26;6.95;80.72
66019;HTU21D;52787;51.084;5.816;2024-01-06T08:14:52;6.85;80.92
66019;HTU21D;52787;51.084;5.816;2024-01-06T08:17:18;6.80;80.73
66019;HTU21D;52787;51.084;5.816;2024-01-06T08:19:43;6.71;80.63
66019;HTU21D;52787;51.084;5.816;2024-01-06T08:22:12;6.72;80.74
66019;HTU21D;52787;51.084;5.816;2024-01-06T08:24:37;6.67;81.20
66019;HTU21D;52787;51.084;5.816;2024-01-06T08:27:04;6.69;81.12
66019;HTU21D;52787;51.084;5.816;2024-01-06T08:29:30;6.69;81.04
66019;HTU21D;52787;51.084;5.816;2024-01-06T08:31:56;6.72;81.04
66019;HTU21D;52787;51.084;5.816;2024-01-06T08:34:22;6.70;80.71
66019;HTU21D;52787;51.084;5.816;2024-01-06T08:36:48;6.58;80.64
66019;HTU21D;52787;51.084;5.816;2024-01-06T08:39:14;6.58;80.90
66019;HTU21D;52787;51.084;5.816;2024-01-06T08:41:39;6.59;80.58
66019;HTU21D;52787;51.084;5.816;2024-01-06T08:44:05;6.59;80.41
66019;HTU21D;52787;51.084;5.816;2024-01-06T08:46:31;6.57;80.20
66019;HTU21D;52787;51.084;5.816;2024-01-06T08:48:57;6.50;80.36
66019;HTU21D;52787;51.084;5.816;2024-01-06T08:51:22;6.48;80.42
66019;HTU21D;52787;51.084;5.816;2024-01-06T08:53:49;6.43;80.56
66019;HTU21D;52787;51.084;5.816;2024-01-06T08:56:15;6.46;80.75
66019;HTU21D;52787;51.084;5.816;2024-01-06T08:58:43;6.55;80.65
66019;HTU21D;52787;51.084;5.816;2024-01-06T09:01:09;6.56;80.31
66019;HTU21D;52787;51.084;5.816;2024-01-06T09:03:36;6.63;80.23
66019;HTU21D;52787;51.084;5.816;2024-01-06T09:06:01;6.60;79.82
66019;HTU21D;52787;51.084;5.816;2024-01-06T09:08:28;6.60;80.18
66019;HTU21D;52787;51.084;5.816;2024-01-06T09:10:54;6.66;80.51
66019;HTU21D;52787;51.084;5.816;2024-01-06T09:13:24;6.71;80.07
66019;HTU21D;52787;51.084;5.816;2024-01-06T09:15:51;6.74;80.27
66019;HTU21D;52787;51.084;5.816;2024-01-06T09:18:17;6.80;80.13
66019;HTU21D;52787;51.084;5.816;2024-01-06T09:20:43;6.74;79.62
66019;HTU21D;52787;51.084;5.816;2024-01-06T09:23:08;6.66;80.20
66019;HTU21D;52787;51.084;5.816;2024-01-06T09:25:35;6.65;80.55
66019;HTU21D;52787;51.084;5.816;2024-01-06T09:28:01;6.57;80.78
66019;HTU21D;52787;51.084;5.816;2024-01-06T09:30:27;6.65;81.32
66019;HTU21D;52787;51.084;5.816;2024-01-06T09:32:53;6.71;80.73
66019;HTU21D;52787;51.084;5.816;2024-01-06T09:35:19;6.78;80.75
66019;HTU21D;52787;51.084;5.816;2024-01-06T09:37:45;6.87;80.76
66019;HTU21D;52787;51.084;5.816;2024-01-06T09:40:12;6.88;80.52
66019;HTU21D;52787;51.084;5.816;2024-01-06T09:42:39;6.87;80.01
66019;HTU21D;52787;51.084;5.816;2024-01-06T09:45:06;6.86;80.07
66019;HTU21D;52787;51.084;5.816;2024-01-06T09:47:38;6.89;80.14
66019;HTU21D;52787;51.084;5.816;2024-01-06T09:50:08;6.90;80.25
66019;HTU21D;52787;51.084;5.816;2024-01-06T09:52:40;6.88;80.49
66019;HTU21D;52787;51.084;5.816;2024-01-06T09:55:11;6.94;80.70
66019;HTU21D;52787;51.084;5.816;2024-01-06T09:57:38;6.98;80.78
66019;HTU21D;52787;51.084;5.816;2024-01-06T10:00:05;6.96;80.42
66019;HTU21D;52787;51.084;5.816;2024-01-06T10:02:33;6.91;80.81
66019;HTU21D;52787;51.084;5.816;2024-01-06T10:04:59;6.91;81.02
66019;HTU21D;52787;51.084;5.816;2024-01-06T10:07:28;6.91;81.04
66019;HTU21D;52787;51.084;5.816;2024-01-06T10:09:55;6.90;80.97
66019;HTU21D;52787;51.084;5.816;2024-01-06T10:12:25;6.91;81.44
66019;HTU21D;52787;51.084;5.816;2024-01-06T10:14:52;6.98;81.52
66019;HTU21D;52787;51.084;5.816;2024-01-06T10:17:18;7.00;81.04
66019;HTU21D;52787;51.084;5.816;2024-01-06T10:19:47;7.00;80.85
66019;HTU21D;52787;51.084;5.816;2024-01-06T10:22:14;6.99;80.74
66019;HTU21D;52787;51.084;5.816;2024-01-06T10:24:40;6.97;80.62
66019;HTU21D;52787;51.084;5.816;2024-01-06T10:27:06;6.97;80.93
66019;HTU21D;52787;51.084;5.816;2024-01-06T10:29:34;6.95;80.94
66019;HTU21D;52787;51.084;5.816;2024-01-06T10:32:00;6.91;81.17
66019;HTU21D;52787;51.084;5.816;2024-01-06T10:34:26;6.96;81.46
66019;HTU21D;52787;51.084;5.816;2024-01-06T10:36:53;7.00;81.59
66019;HTU21D;52787;51.084;5.816;2024-01-06T10:39:20;7.04;81.65
66019;HTU21D;52787;51.084;5.816;2024-01-06T10:41:49;7.07;81.76
66019;HTU21D;52787;51.084;5.816;2024-01-06T10:44:15;7.04;81.83
66019;HTU21D;52787;51.084;5.816;2024-01-06T10:46:41;7.04;82.01
66019;HTU21D;52787;51.084;5.816;2024-01-06T10:49:09;7.03;82.17
66019;HTU21D;52787;51.084;5.816;2024-01-06T10:51:37;7.03;81.85
66019;HTU21D;52787;51.084;5.816;2024-01-06T10:54:04;6.98;81.76
66019;HTU21D;52787;51.084;5.816;2024-01-06T10:56:37;6.90;81.97
66019;HTU21D;52787;51.084;5.816;2024-01-06T10:59:05;6.86;82.29
66019;HTU21D;52787;51.084;5.816;2024-01-06T11:01:33;6.89;82.52
66019;HTU21D;52787;51.084;5.816;2024-01-06T11:04:02;6.87;82.75
66019;HTU21D;52787;51.084;5.816;2024-01-06T11:06:31;6.83;83.00
66019;HTU21D;52787;51.084;5.816;2024-01-06T11:11:42;6.78;82.97
66019;HTU21D;52787;51.084;5.816;2024-01-06T11:14:19;6.73;82.64
66019;HTU21D;52787;51.084;5.816;2024-01-06T11:16:46;6.76;82.55
66019;HTU21D;52787;51.084;5.816;2024-01-06T11:24:54;6.89;81.99
66019;HTU21D;52787;51.084;5.816;2024-01-06T11:27:26;6.84;81.93
66019;HTU21D;52787;51.084;5.816;2024-01-06T11:29:58;6.76;81.56
66019;HTU21D;52787;51.084;5.816;2024-01-06T11:34:56;6.74;82.05
66019;HTU21D;52787;51.084;5.816;2024-01-06T11:40:23;6.80;82.01
66019;HTU21D;52787;51.084;5.816;2024-01-06T11:43:03;6.75;82.00
66019;HTU21D;52787;51.084;5.816;2024-01-06T11:45:39;6.80;82.16
66019;HTU21D;52787;51.084;5.816;2024-01-06T11:48:10;6.88;81.84
66019;HTU21D;52787;51.084;5.816;2024-01-06T11:50:40;6.83;81.59
66019;HTU21D;52787;51.084;5.816;2024-01-06T11:53:08;6.78;81.88
66019;HTU21D;52787;51.084;5.816;2024-01-06T11:55:38;6.71;82.08
66019;HTU21D;52787;51.084;5.816;2024-01-06T11:58:04;6.72;82.43
66019;HTU21D;52787;51.084;5.816;2024-01-06T12:00:32;6.67;82.20
66019;HTU21D;52787;51.084;5.816;2024-01-06T12:02:59;6.68;82.42
66019;HTU21D;52787;51.084;5.816;2024-01-06T12:05:27;6.74;82.48
66019;HTU21D;52787;51.084;5.816;2024-01-06T12:07:57;6.76;82.26
66019;HTU21D;52787;51.084;5.816;2024-01-06T12:10:27;6.73;82.22
66019;HTU21D;52787;51.084;5.816;2024-01-06T12:13:01;6.70;82.41
66019;HTU21D;52787;51.084;5.816;2024-01-06T12:15:32;6.74;82.78
66019;HTU21D;52787;51.084;5.816;2024-01-06T12:17:58;6.80;82.96
66019;HTU21D;52787;51.084;5.816;2024-01-06T12:20:26;6.86;82.84
66019;HTU21D;52787;51.084;5.816;2024-01-06T12:22:54;6.87;82.76
66019;HTU21D;52787;51.084;5.816;2024-01-06T12:25:22;6.71;82.58
66019;HTU21D;52787;51.084;5.816;2024-01-06T12:27:49;6.60;82.94
66019;HTU21D;52787;51.084;5.816;2024-01-06T12:30:19;6.53;83.11
66019;HTU21D;52787;51.084;5.816;2024-01-06T12:32:47;6.51;82.84
66019;HTU21D;52787;51.084;5.816;2024-01-06T12:35:21;6.35;82.17
66019;HTU21D;52787;51.084;5.816;2024-01-06T12:37:48;6.25;82.52
66019;HTU21D;52787;51.084;5.816;2024-01-06T12:40:16;6.05;82.82
66019;HTU21D;52787;51.084;5.816;2024-01-06T12:42:43;6.04;83.28
66019;HTU21D;52787;51.084;5.816;2024-01-06T12:45:10;6.08;83.48
66019;HTU21D;52787;51.084;5.816;2024-01-06T12:47:37;6.05;82.42
66019;HTU21D;52787;51.084;5.816;2024-01-06T12:50:03;5.99;82.87
66019;HTU21D;52787;51.084;5.816;2024-01-06T12:52:29;5.94;82.70
66019;HTU21D;52787;51.084;5.816;2024-01-06T12:54:55;6.04;83.07
66019;HTU21D;52787;51.084;5.816;2024-01-06T12:57:21;6.06;82.65
66019;HTU21D;52787;51.084;5.816;2024-01-06T12:59:47;6.07;82.26
66019;HTU21D;52787;51.084;5.816;2024-01-06T13:02:13;6.11;82.14
66019;HTU21D;52787;51.084;5.816;2024-01-06T13:04:39;6.09;81.75
66019;HTU21D;52787;51.084;5.816;2024-01-06T13:07:05;6.09;81.91
66019;HTU21D;52787;51.084;5.816;2024-01-06T13:09:31;6.13;81.74
66019;HTU21D;52787;51.084;5.816;2024-01-06T13:12:00;6.20;81.75
66019;HTU21D;52787;51.084;5.816;2024-01-06T13:14:27;6.27;81.79
66019;HTU21D;52787;51.084;5.816;2024-01-06T13:16:55;6.22;80.92
66019;HTU21D;52787;51.084;5.816;2024-01-06T13:19:21;6.21;81.18
66019;HTU21D;52787;51.084;5.816;2024-01-06T13:21:46;6.17;80.81
66019;HTU21D;52787;51.084;5.816;2024-01-06T13:24:12;6.12;81.62
66019;HTU21D;52787;51.084;5.816;2024-01-06T13:26:38;6.16;81.59
66019;HTU21D;52787;51.084;5.816;2024-01-06T13:29:04;6.11;81.67
66019;HTU21D;52787;51.084;5.816;2024-01-06T13:31:30;6.09;81.42
66019;HTU21D;52787;51.084;5.816;2024-01-06T13:33:57;6.08;81.41
66019;HTU21D;52787;51.084;5.816;2024-01-06T13:36:22;6.13;81.37
66019;HTU21D;52787;51.084;5.816;2024-01-06T13:38:48;6.16;81.43
66019;HTU21D;52787;51.084;5.816;2024-01-06T13:41:15;6.12;81.10
66019;HTU21D;52787;51.084;5.816;2024-01-06T13:43:41;6.16;80.92
66019;HTU21D;52787;51.084;5.816;2024-01-06T13:46:07;6.16;80.69
66019;HTU21D;52787;51.084;5.816;2024-01-06T13:48:33;6.15;80.93
66019;HTU21D;52787;51.084;5.816;2024-01-06T13:50:59;6.15;81.04
66019;HTU21D;52787;51.084;5.816;2024-01-06T13:53:25;6.22;80.83
66019;HTU21D;52787;51.084;5.816;2024-01-06T13:55:51;6.23;80.81
66019;HTU21D;52787;51.084;5.816;2024-01-06T13:58:17;6.22;80.36
66019;HTU21D;52787;51.084;5.816;2024-01-06T14:00:43;6.21;80.73
66019;HTU21D;52787;51.084;5.816;2024-01-06T14:03:09;6.23;80.72
66019;HTU21D;52787;51.084;5.816;2024-01-06T14:05:35;6.19;80.14
66019;HTU21D;52787;51.084;5.816;2024-01-06T14:08:01;6.19;80.45
66019;HTU21D;52787;51.084;5.816;2024-01-06T14:10:27;6.09;80.94
66019;HTU21D;52787;51.084;5.816;2024-01-06T14:12:54;6.15;81.14
66019;HTU21D;52787;51.084;5.816;2024-01-06T14:15:20;6.17;81.18
66019;HTU21D;52787;51.084;5.816;2024-01-06T14:17:46;6.28;81.21
66019;HTU21D;52787;51.084;5.816;2024-01-06T14:20:15;6.20;80.15
66019;HTU21D;52787;51.084;5.816;2024-01-06T14:22:45;6.21;80.60
66019;HTU21D;52787;51.084;5.816;2024-01-06T14:25:12;6.17;80.36
66019;HTU21D;52787;51.084;5.816;2024-01-06T14:27:39;6.23;80.45
66019;HTU21D;52787;51.084;5.816;2024-01-06T14:30:05;6.14;80.20
66019;HTU21D;52787;51.084;5.816;2024-01-06T14:32:35;6.16;80.08
66019;HTU21D;52787;51.084;5.816;2024-01-06T14:35:04;6.15;80.16
66019;HTU21D;52787;51.084;5.816;2024-01-06T14:37:32;6.17;80.17
66019;HTU21D;52787;51.084;5.816;2024-01-06T14:39:58;6.16;80.00
66019;HTU21D;52787;51.084;5.816;2024-01-06T14:42:24;6.08;80.14
66019;HTU21D;52787;51.084;5.816;2024-01-06T14:44:50;6.00;80.42
66019;HTU21D;52787;51.084;5.816;2024-01-06T14:47:15;5.92;80.74
66019;HTU21D;52787;51.084;5.816;2024-01-06T14:49:41;5.94;80.93
66019;HTU21D;52787;51.084;5.816;2024-01-06T14:52:07;5.90;80.76
66019;HTU21D;52787;51.084;5.816;2024-01-06T14:54:34;5.87;80.80
66019;HTU21D;52787;51.084;5.816;2024-01-06T14:57:01;5.86;80.92
66019;HTU21D;52787;51.084;5.816;2024-01-06T14:59:26;5.87;80.78
66019;HTU21D;52787;51.084;5.816;2024-01-06T15:01:52;5.80;80.62
66019;HTU21D;52787;51.084;5.816;2024-01-06T15:04:18;5.75;80.87
66019;HTU21D;52787;51.084;5.816;2024-01-06T15:06:45;5.68;81.15
66019;HTU21D;52787;51.084;5.816;2024-01-06T15:09:11;5.59;81.81
66019;HTU21D;52787;51.084;5.816;2024-01-06T15:11:37;5.59;82.02
66019;HTU21D;52787;51.084;5.816;2024-01-06T15:14:03;5.53;82.30
66019;HTU21D;52787;51.084;5.816;2024-01-06T15:16:30;5.60;82.26
66019;HTU21D;52787;51.084;5.816;2024-01-06T15:18:56;5.66;82.37
66019;HTU21D;52787;51.084;5.816;2024-01-06T15:21:25;5.65;82.22
66019;HTU21D;52787;51.084;5.816;2024-01-06T15:23:53;5.68;81.78
66019;HTU21D;52787;51.084;5.816;2024-01-06T15:26:22;5.70;81.79
66019;HTU21D;52787;51.084;5.816;2024-01-06T15:28:50;5.68;81.78
66019;HTU21D;52787;51.084;5.816;2024-01-06T15:31:16;5.69;81.95
66019;HTU21D;52787;51.084;5.816;2024-01-06T15:33:42;5.74;81.84
66019;HTU21D;52787;51.084;5.816;2024-01-06T15:36:08;5.74;81.54
66019;HTU21D;52787;51.084;5.816;2024-01-06T15:38:34;5.74;81.38
66019;HTU21D;52787;51.084;5.816;2024-01-06T15:41:00;5.64;80.90